Time;durP1;ratioP1;P1;durP2;ratioP2;P2;SDS_P1;SDS_P2;PMS_P1;PMS_P2;Temp;Humidity;BMP_temperature;BMP_pressure;BME280_temperature;BME280_humidity;BME280_pressure;Samples;Min_cycle;Max_cycle;Signal;HPM_P1;HPM_P2
2021/08/11 00:01:48;;;;;;;15.30;8.98;;;691.60;1817.60;;;;;;5076418;28;20409;-76
2021/08/11 00:04:14;;;;;;;14.27;9.13;;;691.60;1817.60;;;;;;5075072;28;20112;-76
2021/08/11 00:06:40;;;;;;;11.73;8.73;;;691.60;1817.60;;;;;;5076427;28;20091;-76
2021/08/11 00:09:06;;;;;;;12.38;8.77;;;691.60;1817.60;;;;;;5076071;28;20035;-76
2021/08/11 00:11:34;;;;;;;11.60;8.18;;;691.60;1843.20;;;;;;5075922;28;20482;-76
2021/08/11 00:14:00;;;;;;;14.60;8.95;;;691.40;1843.20;;;;;;5076184;28;20070;-76
2021/08/11 00:16:26;;;;;;;14.90;8.73;;;691.40;1843.20;;;;;;5076013;28;20025;-77
2021/08/11 00:18:54;;;;;;;13.60;9.63;;;691.30;1843.20;;;;;;5075860;28;20386;-76
2021/08/11 00:21:20;;;;;;;12.13;8.25;;;691.30;1843.20;;;;;;5057828;28;20060;-76
2021/08/11 00:23:46;;;;;;;10.77;8.68;;;691.20;1843.20;;;;;;5076017;28;20036;-76
2021/08/11 00:26:11;;;;;;;10.65;9.48;;;691.20;1843.20;;;;;;5075852;28;20371;-75
2021/08/11 00:28:37;;;;;;;12.15;9.07;;;691.20;1843.20;;;;;;5075517;28;20031;-76
2021/08/11 00:31:03;;;;;;;9.93;8.65;;;691.20;1843.20;;;;;;5075647;28;20025;-76
2021/08/11 00:33:29;;;;;;;10.70;8.70;;;666.50;1843.20;;;;;;5075172;28;20110;-76
2021/08/11 00:35:54;;;;;;;9.48;8.35;;;666.50;1868.80;;;;;;5075267;28;20097;-76
2021/08/11 00:38:22;;;;;;;11.02;8.15;;;666.40;1868.80;;;;;;5075309;28;20028;-75
2021/08/11 00:40:48;;;;;;;9.38;8.27;;;666.40;1868.80;;;;;;5074940;28;20482;-78
2021/08/11 00:43:14;;;;;;;14.20;9.50;;;666.40;1868.80;;;;;;5057341;28;20035;-76
2021/08/11 00:45:40;;;;;;;11.30;9.20;;;666.40;1868.80;;;;;;5075253;28;20056;-79
2021/08/11 00:48:10;;;;;;;13.02;10.35;;;666.40;1868.80;;;;;;5074612;28;20032;-75
2021/08/11 00:50:41;;;;;;;16.02;10.25;;;666.40;1868.80;;;;;;5056849;28;20517;-76
2021/08/11 00:53:08;;;;;;;15.90;9.05;;;666.40;1868.80;;;;;;5074907;28;20529;-75
2021/08/11 00:55:39;;;;;;;14.20;9.70;;;666.40;1868.80;;;;;;5074786;28;20028;-75
2021/08/11 00:58:10;;;;;;;13.52;9.35;;;666.40;1868.80;;;;;;5075329;28;20377;-75
2021/08/11 01:00:48;;;;;;;14.00;9.43;;;666.40;1868.80;;;;;;5074940;28;20081;-77
2021/08/11 01:03:24;;;;;;;13.48;8.77;;;666.40;1920.00;;;;;;5074806;28;20047;-77
2021/08/11 01:05:52;;;;;;;14.60;9.65;;;666.40;1920.00;;;;;;5074585;28;20025;-76
2021/08/11 01:08:19;;;;;;;10.30;9.23;;;666.40;1920.00;;;;;;5074649;28;20024;-76
2021/08/11 01:10:47;;;;;;;13.07;9.65;;;666.40;1920.00;;;;;;5056521;28;20111;-78
2021/08/11 01:13:14;;;;;;;13.68;8.57;;;666.40;1894.40;;;;;;5074844;28;20024;-77
2021/08/11 01:15:45;;;;;;;11.77;9.45;;;666.30;1920.00;;;;;;5074544;28;20016;-76
2021/08/11 01:18:15;;;;;;;11.05;8.35;;;666.20;1945.60;;;;;;5056079;28;20032;-77
2021/08/11 01:21:02;;;;;;;10.25;8.75;;;666.20;1920.00;;;;;;5056598;28;20036;-76
2021/08/11 01:23:42;;;;;;;14.50;8.88;;;666.20;1920.00;;;;;;5074423;28;20021;-78
2021/08/11 01:26:19;;;;;;;14.60;8.70;;;666.00;1920.00;;;;;;5074450;28;20021;-78
2021/08/11 01:29:09;;;;;;;13.27;8.13;;;666.00;1920.00;;;;;;5074542;28;20031;-75
2021/08/11 01:31:57;;;;;;;12.25;8.55;;;666.00;1920.00;;;;;;5069524;28;20029;-78
2021/08/11 01:34:34;;;;;;;13.13;9.50;;;666.00;1920.00;;;;;;5074113;28;20031;-78
2021/08/11 01:37:06;;;;;;;13.23;8.45;;;666.00;1920.00;;;;;;5074209;28;20053;-78
2021/08/11 01:39:35;;;;;;;16.88;9.40;;;666.00;1920.00;;;;;;5074560;28;20374;-76
2021/08/11 01:42:21;;;;;;;12.55;8.13;;;666.00;1945.60;;;;;;5074134;28;20025;-77
2021/08/11 01:44:53;;;;;;;15.10;8.30;;;665.80;1945.60;;;;;;5073826;28;20346;-77
2021/08/11 01:47:25;;;;;;;11.30;8.32;;;665.80;1971.20;;;;;;5074699;28;20436;-76
2021/08/11 01:49:52;;;;;;;13.07;9.20;;;665.80;1971.20;;;;;;5073643;28;20098;-77
2021/08/11 01:52:19;;;;;;;12.02;8.43;;;665.80;1971.20;;;;;;5056006;28;20077;-78
2021/08/11 01:54:46;;;;;;;10.98;8.93;;;665.80;1971.20;;;;;;5073735;28;20469;-78
2021/08/11 01:57:15;;;;;;;10.23;8.25;;;665.80;1971.20;;;;;;5055885;28;20033;-78
2021/08/11 01:59:43;;;;;;;10.82;9.25;;;665.80;1971.20;;;;;;5073808;28;20081;-77
2021/08/11 02:02:15;;;;;;;13.18;8.27;;;665.70;1971.20;;;;;;5074095;28;20028;-77
2021/08/11 02:04:42;;;;;;;14.25;8.95;;;665.80;1971.20;;;;;;5073559;28;20025;-76
2021/08/11 02:07:08;;;;;;;12.70;8.73;;;665.70;1971.20;;;;;;5073964;28;20029;-75
2021/08/11 02:09:36;;;;;;;12.43;8.50;;;665.70;1996.80;;;;;;5073827;28;20028;-76
2021/08/11 02:12:02;;;;;;;9.55;7.68;;;665.60;1996.80;;;;;;5073744;28;20427;-76
2021/08/11 02:14:28;;;;;;;11.90;8.93;;;665.60;1971.20;;;;;;5073850;28;20060;-76
2021/08/11 02:16:54;;;;;;;17.20;8.88;;;665.70;1971.20;;;;;;5073793;28;20466;-76
2021/08/11 02:19:19;;;;;;;13.50;9.10;;;665.70;1996.80;;;;;;5074207;28;20043;-76
2021/08/11 02:21:45;;;;;;;13.07;8.88;;;665.70;1996.80;;;;;;5075838;28;20406;-76
2021/08/11 02:24:12;;;;;;;10.13;8.90;;;665.70;1996.80;;;;;;5074018;28;20098;-76
2021/08/11 02:26:57;;;;;;;15.25;9.68;;;665.70;1996.80;;;;;;5071337;28;20028;-76
2021/08/11 02:29:37;;;;;;;16.38;8.95;;;665.60;1996.80;;;;;;5073684;28;20060;-77
2021/08/11 02:32:02;;;;;;;18.67;9.30;;;665.70;1996.80;;;;;;5073115;28;20439;-76
2021/08/11 02:34:34;;;;;;;17.58;10.00;;;665.60;2022.40;;;;;;5072959;28;20112;-76
2021/08/11 02:37:06;;;;;;;14.93;8.77;;;640.90;1996.80;;;;;;5073682;28;20135;-76
2021/08/11 02:39:56;;;;;;;12.38;8.45;;;640.90;1996.80;;;;;;5073459;28;20493;-76
2021/08/11 02:42:34;;;;;;;12.88;9.07;;;640.90;1996.80;;;;;;5073067;28;20016;-76
2021/08/11 02:45:02;;;;;;;10.55;8.75;;;640.90;1996.80;;;;;;5073367;28;20024;-76
2021/08/11 02:47:33;;;;;;;11.18;8.63;;;640.90;2022.40;;;;;;5073232;28;20024;-76
2021/08/11 02:50:00;;;;;;;14.88;9.25;;;640.90;2022.40;;;;;;5055042;28;20027;-76
2021/08/11 02:52:25;;;;;;;13.50;9.05;;;640.90;2022.40;;;;;;5073160;28;20482;-76
2021/08/11 02:54:53;;;;;;;13.13;8.70;;;665.60;2022.40;;;;;;5072638;28;20028;-76
2021/08/11 02:57:20;;;;;;;12.98;9.77;;;665.60;2022.40;;;;;;5073000;28;20089;-76
2021/08/11 02:59:47;;;;;;;10.70;7.95;;;640.90;1996.80;;;;;;5073022;28;20039;-77
2021/08/11 03:02:13;;;;;;;12.55;8.65;;;665.60;2022.40;;;;;;5073090;28;20021;-76
2021/08/11 03:04:40;;;;;;;12.68;8.20;;;640.90;1971.20;;;;;;5073338;28;20613;-76
2021/08/11 03:07:06;;;;;;;12.15;9.07;;;665.60;1996.80;;;;;;5073387;28;20102;-76
2021/08/11 03:09:32;;;;;;;11.40;8.05;;;640.90;1971.20;;;;;;5073165;28;20054;-76
2021/08/11 03:11:59;;;;;;;15.43;8.40;;;665.60;1996.80;;;;;;5073185;28;20021;-76
2021/08/11 03:14:26;;;;;;;11.80;8.15;;;640.90;1971.20;;;;;;5073323;28;20186;-77
2021/08/11 03:16:51;;;;;;;13.30;7.72;;;665.60;1996.80;;;;;;5072935;28;20039;-75
2021/08/11 03:19:17;;;;;;;8.98;7.32;;;640.90;1945.60;;;;;;5073563;28;20025;-78
2021/08/11 03:21:43;;;;;;;11.05;7.82;;;640.90;1945.60;;;;;;5073079;28;20031;-78
2021/08/11 03:24:09;;;;;;;9.80;7.97;;;665.60;1971.20;;;;;;5055070;28;20082;-76
2021/08/11 03:26:35;;;;;;;11.32;7.60;;;640.90;1945.60;;;;;;5074445;28;20029;-76
2021/08/11 03:29:01;;;;;;;12.18;7.78;;;640.80;1945.60;;;;;;5073098;28;20470;-77
2021/08/11 03:31:28;;;;;;;11.63;8.00;;;640.80;1920.00;;;;;;5067851;28;20029;-77
2021/08/11 03:33:55;;;;;;;7.97;6.78;;;640.80;1945.60;;;;;;5079245;28;20021;-77
2021/08/11 03:36:22;;;;;;;8.27;6.82;;;640.80;1945.60;;;;;;5054454;28;20044;-76
2021/08/11 03:38:47;;;;;;;11.68;6.63;;;640.70;1945.60;;;;;;5055983;28;20070;-76
2021/08/11 03:41:13;;;;;;;12.50;7.63;;;640.70;1945.60;;;;;;5058305;28;20123;-77
2021/08/11 03:43:39;;;;;;;12.77;7.93;;;640.70;1945.60;;;;;;5076219;28;20481;-77
2021/08/11 03:46:04;;;;;;;10.52;7.60;;;640.60;1945.60;;;;;;5076078;28;20515;-77
2021/08/11 03:48:30;;;;;;;9.05;7.47;;;640.60;1945.60;;;;;;5057911;28;20043;-77
2021/08/11 03:50:56;;;;;;;14.15;6.70;;;640.50;1945.60;;;;;;5076210;28;20470;-75
2021/08/11 03:53:22;;;;;;;14.95;6.90;;;640.50;1945.60;;;;;;5076362;28;20108;-76
2021/08/11 03:55:47;;;;;;;10.75;7.32;;;640.50;1945.60;;;;;;5075823;28;20016;-77
2021/08/11 03:58:13;;;;;;;9.35;7.55;;;640.50;1945.60;;;;;;5075979;28;20024;-76
2021/08/11 04:00:41;;;;;;;10.25;7.88;;;640.50;1945.60;;;;;;5076445;28;20474;-77
2021/08/11 04:03:07;;;;;;;9.38;6.75;;;640.50;1920.00;;;;;;5075763;28;20020;-77
2021/08/11 04:05:32;;;;;;;13.30;7.32;;;640.50;1920.00;;;;;;5075902;28;20082;-77
2021/08/11 04:07:58;;;;;;;8.77;6.80;;;640.50;1920.00;;;;;;5075971;28;20387;-77
2021/08/11 04:10:24;;;;;;;10.40;6.90;;;640.50;1920.00;;;;;;5058298;28;20025;-77
2021/08/11 04:12:49;;;;;;;12.02;7.10;;;640.40;1920.00;;;;;;5076135;28;20031;-76
2021/08/11 04:15:15;;;;;;;12.52;6.75;;;640.40;1945.60;;;;;;5075992;28;20051;-76
2021/08/11 04:17:41;;;;;;;10.35;7.68;;;640.40;1920.00;;;;;;5086597;28;20056;-77
2021/08/11 04:20:07;;;;;;;12.65;7.68;;;640.30;1894.40;;;;;;5075196;28;20071;-76
2021/08/11 04:22:33;;;;;;;7.95;7.15;;;640.40;1920.00;;;;;;5075548;28;20024;-77
2021/08/11 04:24:59;;;;;;;12.20;8.00;;;640.30;1920.00;;;;;;5075524;28;20047;-76
2021/08/11 04:27:24;;;;;;;12.20;8.40;;;640.30;1920.00;;;;;;5075439;28;20047;-76
2021/08/11 04:29:50;;;;;;;10.45;7.35;;;640.40;1894.40;;;;;;5057647;28;20025;-76
2021/08/11 04:32:16;;;;;;;8.88;7.68;;;640.40;1945.60;;;;;;5076043;28;20060;-75
2021/08/11 04:34:42;;;;;;;10.45;7.65;;;640.50;1971.20;;;;;;5087524;28;20116;-76
2021/08/11 04:37:08;;;;;;;9.93;8.13;;;640.50;1971.20;;;;;;5076817;28;20516;-76
2021/08/11 04:39:34;;;;;;;16.00;9.07;;;640.50;1971.20;;;;;;5057322;28;20029;-77
2021/08/11 04:41:59;;;;;;;10.90;7.95;;;640.60;1971.20;;;;;;5088660;28;20063;-76
2021/08/11 04:44:25;;;;;;;11.65;8.52;;;640.70;1971.20;;;;;;5083423;28;20070;-78
2021/08/11 04:46:51;;;;;;;11.52;8.05;;;640.70;1971.20;;;;;;5074997;28;20032;-76
2021/08/11 04:49:16;;;;;;;10.68;8.38;;;640.80;1971.20;;;;;;5074943;28;20036;-77
2021/08/11 04:51:42;;;;;;;11.55;8.07;;;640.90;1971.20;;;;;;5047816;28;20075;-76
2021/08/11 04:54:08;;;;;;;11.35;8.70;;;640.90;1971.20;;;;;;5054863;28;20075;-74
2021/08/11 04:56:33;;;;;;;9.80;8.25;;;665.60;1996.80;;;;;;5054757;28;20024;-75
2021/08/11 04:59:00;;;;;;;12.05;8.38;;;665.60;1996.80;;;;;;5054664;28;20024;-77
2021/08/11 05:01:25;;;;;;;13.80;9.82;;;665.60;1996.80;;;;;;5054828;28;20028;-78
2021/08/11 05:03:51;;;;;;;14.23;9.40;;;665.70;1996.80;;;;;;5062040;28;20501;-75
2021/08/11 05:06:18;;;;;;;12.32;8.90;;;665.70;1971.20;;;;;;5074610;28;20024;-76
2021/08/11 05:08:43;;;;;;;12.23;7.88;;;665.80;1971.20;;;;;;5074905;28;20056;-76
2021/08/11 05:11:09;;;;;;;13.40;8.68;;;665.80;1971.20;;;;;;5074828;28;20078;-75
2021/08/11 05:13:35;;;;;;;12.63;8.52;;;665.80;1945.60;;;;;;5077541;28;20481;-75
2021/08/11 05:16:01;;;;;;;13.40;8.52;;;665.80;1945.60;;;;;;5075868;28;20029;-77
2021/08/11 05:18:26;;;;;;;8.82;7.25;;;665.90;1945.60;;;;;;5075174;28;20466;-75
2021/08/11 05:20:52;;;;;;;12.18;8.68;;;665.90;1945.60;;;;;;5074663;28;20044;-75
2021/08/11 05:23:18;;;;;;;11.65;7.97;;;665.90;1945.60;;;;;;5078363;28;20073;-75
2021/08/11 05:25:44;;;;;;;16.35;9.18;;;665.90;1945.60;;;;;;5094762;28;20115;-77
2021/08/11 05:28:10;;;;;;;8.65;7.43;;;666.00;1945.60;;;;;;5091353;28;20382;-74
2021/08/11 05:30:40;;;;;;;14.52;9.35;;;666.10;1945.60;;;;;;5094332;28;20118;-78
2021/08/11 05:33:06;;;;;;;11.95;8.02;;;666.10;1920.00;;;;;;5094128;28;20493;-77
2021/08/11 05:35:32;;;;;;;15.70;7.85;;;666.10;1920.00;;;;;;5093619;28;20056;-78
2021/08/11 05:37:57;;;;;;;11.45;8.00;;;666.20;1920.00;;;;;;5094231;28;20409;-75
2021/08/11 05:40:23;;;;;;;10.15;8.15;;;666.20;1894.40;;;;;;5093658;28;20036;-75
2021/08/11 05:42:49;;;;;;;14.68;8.90;;;666.40;1920.00;;;;;;5093895;28;20029;-75
2021/08/11 05:45:15;;;;;;;12.63;8.52;;;666.40;1920.00;;;;;;5093782;28;20053;-75
2021/08/11 05:47:41;;;;;;;15.25;8.38;;;666.50;1894.40;;;;;;5094037;28;20161;-76
2021/08/11 05:50:08;;;;;;;16.17;9.00;;;691.20;1894.40;;;;;;5093963;28;20028;-75
2021/08/11 05:52:34;;;;;;;12.43;8.48;;;691.20;1894.40;;;;;;5093784;28;20020;-75
2021/08/11 05:55:00;;;;;;;18.20;9.63;;;691.30;1894.40;;;;;;5093696;28;20107;-76
2021/08/11 05:57:25;;;;;;;13.55;9.43;;;691.30;1920.00;;;;;;5090655;28;20054;-77
2021/08/11 05:59:51;;;;;;;14.75;8.90;;;691.40;1894.40;;;;;;5092368;28;20032;-75
2021/08/11 06:02:17;;;;;;;12.70;9.60;;;691.40;1894.40;;;;;;5086594;28;20101;-75
2021/08/11 06:04:43;;;;;;;14.07;8.75;;;691.50;1894.40;;;;;;5083784;28;20595;-76
2021/08/11 06:07:09;;;;;;;10.77;8.88;;;691.60;1868.80;;;;;;5093553;28;20111;-76
2021/08/11 06:09:35;;;;;;;16.45;9.45;;;691.70;1817.60;;;;;;5093833;28;20020;-75
2021/08/11 06:12:01;;;;;;;14.07;9.60;;;691.70;1868.80;;;;;;5075390;28;20485;-77
2021/08/11 06:14:27;;;;;;;13.05;9.60;;;691.80;1843.20;;;;;;5093538;28;20530;-77
2021/08/11 06:16:52;;;;;;;17.63;9.40;;;691.80;1817.60;;;;;;5093359;28;20535;-74
2021/08/11 06:19:18;;;;;;;18.70;8.90;;;691.90;1817.60;;;;;;5087457;28;20064;-78
2021/08/11 06:21:44;;;;;;;15.98;10.18;;;691.80;1792.00;;;;;;5073724;28;20111;-77
2021/08/11 06:24:09;;;;;;;15.55;9.63;;;691.90;1792.00;;;;;;5073622;28;20027;-75
2021/08/11 06:26:36;;;;;;;13.88;9.05;;;692.10;1817.60;;;;;;5073610;28;20028;-77
2021/08/11 06:29:02;;;;;;;20.13;9.52;;;692.10;1817.60;;;;;;5073205;28;20021;-77
2021/08/11 06:31:29;;;;;;;19.85;10.05;;;692.10;1817.60;;;;;;5073275;28;20490;-75
2021/08/11 06:33:55;;;;;;;12.80;9.40;;;716.80;1843.20;;;;;;5073493;28;20031;-75
2021/08/11 06:36:22;;;;;;;18.25;9.43;;;716.90;1817.60;;;;;;5073872;28;20048;-78
2021/08/11 06:38:48;;;;;;;18.80;10.70;;;717.00;1792.00;;;;;;5075197;28;20031;-78
2021/08/11 06:41:16;;;;;;;59.25;16.17;;;717.00;1792.00;;;;;;5074413;28;20610;-77
2021/08/11 06:43:46;;;;;;;61.08;17.55;;;717.20;1843.20;;;;;;5054532;28;20435;-78
2021/08/11 06:46:13;;;;;;;17.42;10.15;;;717.30;1817.60;;;;;;5073417;28;20107;-78
2021/08/11 06:48:40;;;;;;;18.52;10.13;;;717.30;1817.60;;;;;;5073177;28;20071;-75
2021/08/11 06:51:07;;;;;;;15.30;9.75;;;717.40;1817.60;;;;;;5054748;28;20032;-76
2021/08/11 06:53:33;;;;;;;15.18;10.43;;;717.50;1817.60;;;;;;5073553;28;20067;-77
2021/08/11 06:55:59;;;;;;;12.27;9.90;;;717.60;1817.60;;;;;;5073382;28;20029;-75
2021/08/11 06:58:25;;;;;;;16.52;9.00;;;717.60;1792.00;;;;;;5072956;28;20020;-76
2021/08/11 07:00:52;;;;;;;85.30;16.55;;;717.70;1792.00;;;;;;5072914;28;20170;-74
2021/08/11 07:03:19;;;;;;;17.58;9.27;;;742.40;1792.00;;;;;;5073168;28;20096;-78
2021/08/11 07:05:45;;;;;;;52.35;12.35;;;742.50;1817.60;;;;;;5072845;28;20036;-76
2021/08/11 07:08:11;;;;;;;296.80;38.97;;;742.60;1792.00;;;;;;5073119;28;20025;-76
2021/08/11 07:10:37;;;;;;;482.60;67.68;;;742.70;1766.40;;;;;;5073182;28;20098;-76
2021/08/11 07:13:03;;;;;;;459.58;53.22;;;742.90;1766.40;;;;;;5074547;28;20466;-78
2021/08/11 07:15:29;;;;;;;201.88;24.35;;;742.90;1740.80;;;;;;5076783;28;20021;-76
2021/08/11 07:17:56;;;;;;;154.88;21.30;;;743.00;1715.20;;;;;;5058840;28;20403;-76
2021/08/11 07:20:23;;;;;;;20.25;9.55;;;743.10;1689.60;;;;;;5076895;28;20036;-75
2021/08/11 07:22:49;;;;;;;19.67;10.13;;;743.10;1664.00;;;;;;5076735;28;20028;-76
2021/08/11 07:25:15;;;;;;;16.48;9.43;;;743.10;1664.00;;;;;;5076770;28;20030;-76
2021/08/11 07:27:40;;;;;;;14.48;8.20;;;743.10;1664.00;;;;;;5058533;28;20478;-76
2021/08/11 07:30:07;;;;;;;21.80;9.07;;;743.10;1638.40;;;;;;5076490;28;20033;-76
2021/08/11 07:32:32;;;;;;;81.18;16.05;;;743.30;1612.80;;;;;;5076635;28;20024;-77
2021/08/11 07:34:58;;;;;;;18.85;7.80;;;743.30;1638.40;;;;;;5076316;28;20020;-76
2021/08/11 07:37:24;;;;;;;16.33;7.78;;;743.20;1612.80;;;;;;5076314;28;20190;-75
2021/08/11 07:39:49;;;;;;;135.90;24.40;;;743.30;1612.80;;;;;;5076296;28;20493;-75
2021/08/11 07:42:15;;;;;;;11.13;7.38;;;743.30;1587.20;;;;;;5076234;28;20028;-76
2021/08/11 07:44:41;;;;;;;10.27;7.07;;;768.00;1587.20;;;;;;5076275;28;20035;-75
2021/08/11 07:47:07;;;;;;;12.20;7.13;;;768.10;1561.60;;;;;;5076035;28;20020;-76
2021/08/11 07:49:32;;;;;;;16.02;7.20;;;768.20;1561.60;;;;;;5076234;28;20031;-75
2021/08/11 07:51:58;;;;;;;10.15;6.80;;;768.20;1536.00;;;;;;5075834;28;20043;-76
2021/08/11 07:54:24;;;;;;;11.80;6.75;;;768.30;1484.80;;;;;;5076253;28;20107;-77
2021/08/11 07:56:49;;;;;;;12.50;7.03;;;768.40;1484.80;;;;;;5076195;28;20367;-76
2021/08/11 07:59:15;;;;;;;16.15;6.82;;;768.50;1459.20;;;;;;5076192;28;20021;-76
2021/08/11 08:01:41;;;;;;;8.35;6.38;;;768.70;1459.20;;;;;;5076038;28;20040;-76
2021/08/11 08:04:06;;;;;;;17.40;6.30;;;768.90;1408.00;;;;;;5057486;28;20062;-76
2021/08/11 08:06:32;;;;;;;10.35;6.13;;;793.70;1408.00;;;;;;5075667;28;20505;-75
2021/08/11 08:08:58;;;;;;;15.82;6.07;;;793.70;1408.00;;;;;;5075899;28;20020;-75
2021/08/11 08:11:24;;;;;;;10.68;5.70;;;793.90;1484.80;;;;;;5075816;28;20075;-76
2021/08/11 08:13:49;;;;;;;17.83;5.82;;;794.20;1433.60;;;;;;5075716;28;20452;-77
2021/08/11 08:16:16;;;;;;;12.27;6.03;;;794.30;1408.00;;;;;;5075664;28;20028;-77
2021/08/11 08:18:42;;;;;;;7.13;5.00;;;794.50;1408.00;;;;;;5075839;28;20103;-77
2021/08/11 08:21:08;;;;;;;7.22;5.75;;;819.30;1356.80;;;;;;5057274;28;20140;-77
2021/08/11 08:23:33;;;;;;;10.10;5.35;;;819.40;1331.20;;;;;;5057532;28;20027;-77
2021/08/11 08:25:59;;;;;;;8.35;5.07;;;819.60;1331.20;;;;;;5057098;28;20072;-76
2021/08/11 08:28:25;;;;;;;8.27;5.97;;;819.70;1331.20;;;;;;5075613;28;20089;-76
2021/08/11 08:30:51;;;;;;;6.60;5.18;;;819.90;1331.20;;;;;;5075403;28;20067;-76
2021/08/11 08:33:17;;;;;;;8.60;5.47;;;820.00;1331.20;;;;;;5075369;28;20033;-77
2021/08/11 08:35:43;;;;;;;8.73;5.53;;;820.10;1331.20;;;;;;5057321;28;20489;-77
2021/08/11 08:38:09;;;;;;;9.48;5.07;;;844.80;1305.60;;;;;;5075078;28;20033;-77
2021/08/11 08:40:37;;;;;;;7.75;5.10;;;845.00;1331.20;;;;;;5057651;28;20037;-78
2021/08/11 08:43:05;;;;;;;10.10;5.15;;;845.10;1331.20;;;;;;5075786;28;20017;-78
2021/08/11 08:45:31;;;;;;;9.98;4.95;;;845.20;1305.60;;;;;;5057302;28;20028;-77
2021/08/11 08:47:57;;;;;;;10.10;5.57;;;845.40;1228.80;;;;;;5075710;28;20347;-77
2021/08/11 08:50:24;;;;;;;5.00;4.47;;;845.30;1280.00;;;;;;5075409;28;20427;-77
2021/08/11 08:52:50;;;;;;;9.88;5.18;;;845.40;1254.40;;;;;;5075231;28;20027;-77
2021/08/11 08:55:17;;;;;;;5.40;4.20;;;845.60;1177.60;;;;;;5075264;28;20028;-77
2021/08/11 08:57:44;;;;;;;6.55;4.25;;;845.70;1152.00;;;;;;5075021;28;20024;-77
2021/08/11 09:00:10;;;;;;;8.93;4.43;;;845.70;1177.60;;;;;;5074751;28;20470;-79
2021/08/11 09:02:41;;;;;;;4.93;3.95;;;870.40;1177.60;;;;;;5075368;28;20035;-79
2021/08/11 09:05:09;;;;;;;8.23;4.47;;;870.50;1228.80;;;;;;5074993;28;20474;-76
2021/08/11 09:07:35;;;;;;;7.10;4.65;;;870.60;1177.60;;;;;;5056726;28;20024;-79
2021/08/11 09:10:16;;;;;;;8.55;4.88;;;870.60;1126.40;;;;;;5074632;28;20074;-77
2021/08/11 09:12:46;;;;;;;6.88;4.93;;;870.60;1203.20;;;;;;5057228;28;20424;-77
2021/08/11 09:15:32;;;;;;;10.25;5.68;;;870.60;1177.60;;;;;;5074705;28;20021;-79
2021/08/11 09:18:08;;;;;;;10.25;5.03;;;870.80;1177.60;;;;;;5075019;28;20029;-77
2021/08/11 09:20:34;;;;;;;5.55;4.30;;;870.80;1177.60;;;;;;5074548;28;20056;-78
2021/08/11 09:23:00;;;;;;;9.07;4.50;;;870.60;1152.00;;;;;;5056408;28;20024;-79
2021/08/11 09:25:26;;;;;;;10.15;5.38;;;870.60;1152.00;;;;;;5074624;28;20020;-77
2021/08/11 09:27:52;;;;;;;11.50;4.45;;;870.50;1152.00;;;;;;5074498;28;20081;-77
2021/08/11 09:30:22;;;;;;;8.32;5.57;;;870.50;1177.60;;;;;;5074779;28;20024;-78
2021/08/11 09:33:05;;;;;;;8.55;5.00;;;870.50;1203.20;;;;;;5074705;28;20092;-78
2021/08/11 09:35:38;;;;;;;10.93;5.72;;;870.60;1228.80;;;;;;5074017;28;20032;-77
2021/08/11 09:38:11;;;;;;;9.27;4.50;;;870.70;1152.00;;;;;;5073688;28;20491;-77
2021/08/11 09:40:38;;;;;;;7.90;5.28;;;870.80;1152.00;;;;;;5056331;28;20040;-77
2021/08/11 09:43:07;;;;;;;4.88;4.18;;;870.70;1100.80;;;;;;5074705;28;20067;-77
2021/08/11 09:45:51;;;;;;;7.63;4.78;;;870.60;1126.40;;;;;;5074155;28;20033;-77
2021/08/11 09:48:21;;;;;;;6.95;4.40;;;870.70;1100.80;;;;;;5074377;28;20406;-77
2021/08/11 09:51:10;;;;;;;8.60;5.35;;;870.80;1177.60;;;;;;5056241;28;20029;-78
2021/08/11 09:53:38;;;;;;;8.15;4.45;;;871.00;1152.00;;;;;;5055744;28;20509;-77
2021/08/11 09:56:11;;;;;;;6.80;4.30;;;871.00;1126.40;;;;;;5073924;28;20031;-78
2021/08/11 09:58:42;;;;;;;7.20;4.90;;;871.00;1100.80;;;;;;5073925;28;20025;-78
2021/08/11 10:01:17;;;;;;;10.40;4.68;;;871.10;1152.00;;;;;;5073546;28;20036;-78
2021/08/11 10:03:59;;;;;;;6.95;3.97;;;871.30;1100.80;;;;;;5073986;28;20016;-78
2021/08/11 10:06:39;;;;;;;15.63;4.32;;;896.10;1075.20;;;;;;5073849;28;20021;-78
2021/08/11 10:09:26;;;;;;;12.27;4.18;;;896.20;1100.80;;;;;;5055553;28;20032;-78
2021/08/11 10:11:57;;;;;;;8.00;4.32;;;896.40;1100.80;;;;;;5055869;28;20028;-78
2021/08/11 10:14:28;;;;;;;8.00;3.50;;;896.70;1049.60;;;;;;5055769;28;20108;-78
2021/08/11 10:16:55;;;;;;;9.00;4.60;;;896.80;998.40;;;;;;5073820;28;20486;-78
2021/08/11 10:19:27;;;;;;;7.80;3.70;;;896.90;998.40;;;;;;5073537;28;20020;-78
2021/08/11 10:22:00;;;;;;;6.82;3.00;;;921.60;1024.00;;;;;;5073440;28;20028;-78
2021/08/11 10:24:28;;;;;;;7.25;3.92;;;896.90;972.80;;;;;;5073651;28;20481;-78
2021/08/11 10:26:54;;;;;;;5.38;3.50;;;896.90;972.80;;;;;;5073666;28;20483;-78
2021/08/11 10:29:20;;;;;;;3.78;3.00;;;896.90;972.80;;;;;;5055381;28;20024;-78
2021/08/11 10:31:47;;;;;;;5.63;3.85;;;921.60;998.40;;;;;;5073405;28;20032;-78
2021/08/11 10:34:15;;;;;;;6.20;3.83;;;896.90;947.20;;;;;;5055363;28;20095;-78
2021/08/11 10:36:43;;;;;;;6.95;4.63;;;921.80;1024.00;;;;;;5072984;28;20044;-78
2021/08/11 10:39:09;;;;;;;7.80;4.28;;;921.80;972.80;;;;;;5073078;28;20055;-78
2021/08/11 10:41:37;;;;;;;7.53;4.32;;;922.00;998.40;;;;;;5073226;28;20064;-78
2021/08/11 10:44:05;;;;;;;6.18;4.07;;;922.00;972.80;;;;;;5073548;28;20126;-79
2021/08/11 10:46:42;;;;;;;4.35;3.42;;;922.20;998.40;;;;;;5055204;28;20028;-79
2021/08/11 10:49:16;;;;;;;7.03;3.95;;;922.20;998.40;;;;;;5077218;28;20495;-79
2021/08/11 10:51:45;;;;;;;7.85;3.72;;;922.50;896.00;;;;;;5059298;28;20037;-79
2021/08/11 10:54:11;;;;;;;8.18;3.88;;;922.50;921.60;;;;;;5059354;28;20071;-79
2021/08/11 10:56:43;;;;;;;5.85;4.10;;;947.30;947.20;;;;;;5077491;28;20028;-79
2021/08/11 10:59:33;;;;;;;;;;;947.50;947.20;;;;;;5077739;28;20108;-79
2021/08/11 11:02:00;;;;;;;7.32;3.95;;;947.50;870.40;;;;;;5077240;28;19912;-79
2021/08/11 11:04:42;;;;;;;8.20;4.45;;;947.60;870.40;;;;;;5077145;28;20036;-79
2021/08/11 11:07:16;;;;;;;6.57;3.75;;;947.60;870.40;;;;;;5077623;28;20430;-79
2021/08/11 11:09:45;;;;;;;5.45;4.03;;;947.70;870.40;;;;;;5078168;28;20494;-79
2021/08/11 11:12:17;;;;;;;5.10;4.18;;;947.80;896.00;;;;;;5078519;28;20020;-79
2021/08/11 11:17:33;;;;;;;6.47;4.32;;;947.90;844.80;;;;;;5076810;28;20386;-79
2021/08/11 11:20:08;;;;;;;6.50;4.32;;;948.00;896.00;;;;;;5058792;28;20040;-78
2021/08/11 11:22:37;;;;;;;5.60;4.07;;;947.90;844.80;;;;;;5058390;28;20394;-79
2021/08/11 11:25:05;;;;;;;8.68;5.38;;;972.80;870.40;;;;;;5076853;28;20027;-79
2021/08/11 11:27:55;;;;;;;5.70;4.53;;;972.80;870.40;;;;;;5076569;28;20477;-79
2021/08/11 11:30:27;;;;;;;6.68;4.43;;;972.90;844.80;;;;;;5076322;28;20025;-79
2021/08/11 11:33:11;;;;;;;6.40;4.45;;;972.90;793.60;;;;;;5076563;28;20017;-79
2021/08/11 11:35:38;;;;;;;6.35;4.53;;;948.10;819.20;;;;;;5076458;28;20021;-79
2021/08/11 11:38:14;;;;;;;10.38;5.25;;;972.90;870.40;;;;;;5076137;28;20044;-79
2021/08/11 11:41:03;;;;;;;6.68;4.70;;;972.90;819.20;;;;;;5076245;28;20111;-79
2021/08/11 11:43:30;;;;;;;5.65;4.65;;;973.20;844.80;;;;;;4995108;28;20508;-79
2021/08/11 11:45:58;;;;;;;6.28;4.80;;;973.30;844.80;;;;;;4994744;28;20061;-79
2021/08/11 11:48:24;;;;;;;5.90;5.25;;;973.40;793.60;;;;;;4994401;28;20034;-78
2021/08/11 11:50:59;;;;;;;6.93;5.75;;;973.60;870.40;;;;;;4994731;28;20121;-79
2021/08/11 11:53:29;;;;;;;6.32;5.00;;;973.60;844.80;;;;;;5004778;28;20037;-79
2021/08/11 11:55:58;;;;;;;6.55;5.13;;;973.60;896.00;;;;;;5013991;28;20045;-79
2021/08/11 11:58:27;;;;;;;7.50;5.22;;;973.70;896.00;;;;;;5014197;28;20026;-79
2021/08/11 12:01:01;;;;;;;5.18;4.68;;;973.70;896.00;;;;;;5012349;28;20089;-80
2021/08/11 12:03:35;;;;;;;10.32;5.18;;;973.70;896.00;;;;;;5009637;28;20433;-79
2021/08/11 12:06:00;;;;;;;7.10;4.38;;;998.40;896.00;;;;;;4994289;28;20062;-79
2021/08/11 12:08:26;;;;;;;6.63;4.35;;;998.40;896.00;;;;;;4994053;28;20073;-78
2021/08/11 12:11:12;;;;;;;9.02;6.10;;;998.70;896.00;;;;;;4994310;28;20405;-78
2021/08/11 12:13:46;;;;;;;8.15;6.35;;;998.70;870.40;;;;;;4994053;28;20030;-78
2021/08/11 12:16:13;;;;;;;9.52;6.70;;;998.80;870.40;;;;;;4993776;28;20037;-78
2021/08/11 12:18:41;;;;;;;8.10;6.60;;;998.80;870.40;;;;;;4994157;28;20071;-78
2021/08/11 12:21:08;;;;;;;11.32;7.90;;;998.60;870.40;;;;;;5057339;28;20130;-79
2021/08/11 12:23:34;;;;;;;8.32;6.93;;;998.40;896.00;;;;;;5075000;28;20215;-78